Check out our new PWSWeather beta!
PWSweather.com
Personal Weather Stations
Station Observations
238362
MilevskoCZ 39901

MilevskoCZ 39901

Lat: 49.44648754, Lon: 14.36534017

Elevation: 1558

Station Type: W-8681

http://www.meteomilevsko.cz

Latest ConditionsUpdated 10:30:14 AM GMT+01:01 Wednesday, Feb 26, 2020
Currently Today's Max Today's Min Today's Average
Temperature 38.3°F3.5°C 40.6°F4.8°C 37.4°F3.0°C 39.0°F3.9°C
Dew Point 25.2°F-3.8°C 35.3°F1.8°C 25.2°F-3.8°C 30.7°F-0.7°C
Winds 18.3 mph W29.5 kmh W 18.3 mph -29.5 kmh - - 6.6 mph 10.6 kmh
Wind Gusts 25.1 mph40.4 kmh 25.1 mph40.4 kmh - -
Humidity 59% 82% 59% 72%
Pressure 29.56 in1001.0 mb 29.58 in1001.7 mb 29.50 in999.0 mb -
Hour Temp Dew Point Humidity Winds Wind Gusts Pressure Precip Precip Rate Daily Precip Total
10:30 AM 38.3°F3.5°C 25.2°F-3.8°C 59% 18.3 mph W29.5 kmh W 25.1 mph40.4 kmh 29.56 in1001.0 mb 0.00 in0.0 mm 0.00 in0.0 mm 0.01 in0.3 mm
10:15 AM 38.1°F3.4°C 26.3°F-3.2°C 62% 8.3 mph WNW13.4 kmh WNW 20.6 mph33.2 kmh 29.56 in1001.0 mb 0.00 in0.0 mm 0.00 in0.0 mm 0.01 in0.3 mm
10:00 AM 37.9°F3.3°C 26.5°F-3.1°C 63% 7.6 mph W12.2 kmh W 16.8 mph27.0 kmh 29.56 in1001.0 mb 0.00 in0.0 mm 0.00 in0.0 mm 0.01 in0.3 mm
09:45 AM 38.7°F3.7°C 26.8°F-2.9°C 62% 8.3 mph WNW13.4 kmh WNW 21.3 mph34.3 kmh 29.55 in1000.7 mb 0.00 in0.0 mm 0.00 in0.0 mm 0.01 in0.3 mm
09:30 AM 37.9°F3.3°C 26.1°F-3.3°C 62% 15.2 mph WNW24.5 kmh WNW 21.3 mph34.3 kmh 29.56 in1001.0 mb 0.00 in0.0 mm 0.00 in0.0 mm 0.01 in0.3 mm
09:15 AM 38.5°F3.6°C 26.6°F-3.0°C 62% 8.3 mph WNW13.4 kmh WNW 17.4 mph28.0 kmh 29.56 in1001.0 mb 0.00 in0.0 mm 0.00 in0.0 mm 0.01 in0.3 mm
09:00 AM 38.7°F3.7°C 26.8°F-2.9°C 62% 12.1 mph WNW19.5 kmh WNW 23.5 mph37.8 kmh 29.55 in1000.7 mb 0.00 in0.0 mm 0.00 in0.0 mm 0.01 in0.3 mm
08:45 AM 38.5°F3.6°C 27.4°F-2.6°C 64% 13.6 mph W21.9 kmh W 23.5 mph37.8 kmh 29.55 in1000.7 mb 0.00 in0.0 mm 0.00 in0.0 mm 0.01 in0.3 mm
08:30 AM 38.7°F3.7°C 29.4°F-1.4°C 69% 12.1 mph W19.5 kmh W 18.3 mph29.5 kmh 29.55 in1000.7 mb 0.00 in0.0 mm 0.00 in0.0 mm 0.01 in0.3 mm
08:15 AM 38.3°F3.5°C 31.1°F-0.5°C 75% 9.2 mph W14.8 kmh W 12.1 mph19.5 kmh 29.54 in1000.3 mb 0.00 in0.0 mm 0.00 in0.0 mm 0.01 in0.3 mm
08:00 AM 37.9°F3.3°C 32.6°F0.3°C 81% 5.4 mph WSW8.7 kmh WSW 14.5 mph23.3 kmh 29.53 in1000.0 mb 0.00 in0.0 mm 0.00 in0.0 mm 0.01 in0.3 mm
07:45 AM 37.4°F3.0°C 31.8°F-0.1°C 80% 3.1 mph W5.0 kmh W 6.9 mph11.1 kmh 29.53 in1000.0 mb 0.00 in0.0 mm 0.00 in0.0 mm 0.01 in0.3 mm
07:30 AM 37.4°F3.0°C 31.2°F-0.4°C 78% 4.5 mph SW7.2 kmh SW 6.9 mph11.1 kmh 29.51 in999.3 mb 0.00 in0.0 mm 0.00 in0.0 mm 0.01 in0.3 mm
07:15 AM 38.1°F3.4°C 31.2°F-0.4°C 76% 2.2 mph SW3.5 kmh SW 11.4 mph18.3 kmh 29.50 in999.0 mb 0.00 in0.0 mm 0.00 in0.0 mm 0.01 in0.3 mm
07:00 AM 38.8°F3.8°C 30.9°F-0.6°C 73% 3.1 mph WSW5.0 kmh WSW 14.5 mph23.3 kmh 29.50 in999.0 mb 0.00 in0.0 mm 0.00 in0.0 mm 0.01 in0.3 mm
06:45 AM 39.6°F4.2°C 30.2°F-1.0°C 69% 7.6 mph W12.2 kmh W 14.5 mph23.3 kmh 29.51 in999.3 mb 0.00 in0.0 mm 0.00 in0.0 mm 0.01 in0.3 mm
06:30 AM 39.9°F4.4°C 29.9°F-1.2°C 67% 6.9 mph W11.1 kmh W 12.1 mph19.5 kmh 29.50 in999.0 mb 0.00 in0.0 mm 0.00 in0.0 mm 0.01 in0.3 mm
06:15 AM 39.6°F4.2°C 29.5°F-1.4°C 67% 4.5 mph SW7.2 kmh SW 8.3 mph13.4 kmh 29.50 in999.0 mb 0.00 in0.0 mm 0.00 in0.0 mm 0.01 in0.3 mm
06:00 AM 39.7°F4.3°C 29.7°F-1.3°C 67% 5.4 mph WSW8.7 kmh WSW 9.8 mph15.8 kmh 29.51 in999.3 mb 0.00 in0.0 mm 0.00 in0.0 mm 0.01 in0.3 mm
05:45 AM 39.4°F4.1°C 30.1°F-1.1°C 69% 7.6 mph W12.2 kmh W 9.2 mph14.8 kmh 29.51 in999.3 mb 0.00 in0.0 mm 0.00 in0.0 mm 0.01 in0.3 mm
05:30 AM 39.4°F4.1°C 30.1°F-1.1°C 69% 3.1 mph WSW5.0 kmh WSW 6.9 mph11.1 kmh 29.51 in999.3 mb 0.00 in0.0 mm 0.00 in0.0 mm 0.01 in0.3 mm
05:15 AM 39.0°F3.9°C 30.1°F-1.1°C 70% 4.5 mph WSW7.2 kmh WSW 8.3 mph13.4 kmh 29.51 in999.3 mb 0.00 in0.0 mm 0.00 in0.0 mm 0.01 in0.3 mm
05:00 AM 39.0°F3.9°C 30.1°F-1.1°C 70% 3.1 mph SW5.0 kmh SW 9.2 mph14.8 kmh 29.51 in999.3 mb 0.00 in0.0 mm 0.00 in0.0 mm 0.01 in0.3 mm
04:45 AM 39.4°F4.1°C 30.4°F-0.9°C 70% 3.8 mph WSW6.1 kmh WSW 15.2 mph24.5 kmh 29.52 in999.7 mb 0.00 in0.0 mm 0.00 in0.0 mm 0.01 in0.3 mm
04:30 AM 39.2°F4.0°C 30.6°F-0.8°C 71% 5.4 mph WSW8.7 kmh WSW 9.8 mph15.8 kmh 29.52 in999.7 mb 0.00 in0.0 mm 0.00 in0.0 mm 0.01 in0.3 mm
04:15 AM 38.8°F3.8°C 30.3°F-0.9°C 71% 3.8 mph WSW6.1 kmh WSW 7.6 mph12.2 kmh 29.52 in999.7 mb 0.00 in0.0 mm 0.00 in0.0 mm 0.01 in0.3 mm
04:00 AM 39.0°F3.9°C 30.8°F-0.7°C 72% 4.5 mph SW7.2 kmh SW 7.6 mph12.2 kmh 29.51 in999.3 mb 0.00 in0.0 mm 0.00 in0.0 mm 0.01 in0.3 mm
03:45 AM 38.8°F3.8°C 30.6°F-0.8°C 72% 1.6 mph SW2.6 kmh SW 7.6 mph12.2 kmh 29.51 in999.3 mb 0.00 in0.0 mm 0.00 in0.0 mm 0.01 in0.3 mm
03:30 AM 39.0°F3.9°C 30.8°F-0.7°C 72% 6.9 mph SW11.1 kmh SW 9.2 mph14.8 kmh 29.52 in999.7 mb 0.00 in0.0 mm 0.00 in0.0 mm 0.01 in0.3 mm
03:15 AM 39.4°F4.1°C 31.5°F-0.3°C 73% 9.2 mph W14.8 kmh W 12.1 mph19.5 kmh 29.53 in1000.0 mb 0.00 in0.0 mm 0.00 in0.0 mm 0.01 in0.3 mm
03:00 AM 39.6°F4.2°C 31.6°F-0.2°C 73% 5.4 mph W8.7 kmh W 10.7 mph17.2 kmh 29.55 in1000.7 mb 0.00 in0.0 mm 0.00 in0.0 mm 0.01 in0.3 mm
02:45 AM 39.7°F4.3°C 32.5°F0.3°C 75% 4.5 mph W7.2 kmh W 12.1 mph19.5 kmh 29.55 in1000.7 mb 0.00 in0.0 mm 0.00 in0.0 mm 0.01 in0.3 mm
02:30 AM 39.0°F3.9°C 32.1°F0.1°C 76% 6.9 mph WNW11.1 kmh WNW 10.7 mph17.2 kmh 29.57 in1001.4 mb 0.00 in0.0 mm 0.00 in0.0 mm 0.01 in0.3 mm
02:15 AM 38.7°F3.7°C 32.1°F0.1°C 77% 7.6 mph W12.2 kmh W 11.4 mph18.3 kmh 29.58 in1001.7 mb 0.00 in0.0 mm 0.00 in0.0 mm 0.01 in0.3 mm
02:00 AM 39.2°F4.0°C 32.3°F0.2°C 76% 6.9 mph W11.1 kmh W 11.4 mph18.3 kmh 29.57 in1001.4 mb 0.00 in0.0 mm 0.00 in0.0 mm 0.01 in0.3 mm
01:45 AM 39.6°F4.2°C 33.3°F0.7°C 78% 9.2 mph W14.8 kmh W 14.5 mph23.3 kmh 29.57 in1001.4 mb 0.00 in0.0 mm 0.00 in0.0 mm 0.01 in0.3 mm
01:30 AM 39.6°F4.2°C 33.9°F1.1°C 80% 5.4 mph W8.7 kmh W 10.7 mph17.2 kmh 29.58 in1001.7 mb 0.00 in0.0 mm 0.00 in0.0 mm 0.01 in0.3 mm
01:15 AM 39.7°F4.3°C 34.1°F1.2°C 80% 6.9 mph W11.1 kmh W 11.4 mph18.3 kmh 29.58 in1001.7 mb 0.00 in0.0 mm 0.00 in0.0 mm 0.01 in0.3 mm
01:00 AM 39.9°F4.4°C 34.9°F1.6°C 82% 4.5 mph WNW7.2 kmh WNW 9.8 mph15.8 kmh 29.58 in1001.7 mb 0.00 in0.0 mm 0.00 in0.0 mm 0.01 in0.3 mm
12:45 AM 40.1°F4.5°C 35.1°F1.7°C 82% 2.2 mph WNW3.5 kmh WNW 6.0 mph9.7 kmh 29.58 in1001.7 mb 0.00 in0.0 mm 0.00 in0.0 mm 0.01 in0.3 mm
12:30 AM 40.1°F4.5°C 35.1°F1.7°C 82% 5.4 mph W8.7 kmh W 6.9 mph11.1 kmh 29.58 in1001.7 mb 0.01 in0.3 mm 0.00 in0.0 mm 0.01 in0.3 mm
12:15 AM 40.1°F4.5°C 34.7°F1.5°C 81% 4.5 mph W7.2 kmh W 7.6 mph12.2 kmh 29.58 in1001.7 mb 0.01 in0.3 mm 0.00 in0.0 mm 0.01 in0.3 mm
12:00 AM 40.6°F4.8°C 35.3°F1.8°C 81% 5.4 mph W8.7 kmh W 9.2 mph14.8 kmh 29.58 in1001.7 mb 0.01 in0.3 mm 0.00 in0.0 mm 0.01 in0.3 mm